createdAt,value
2023-11-27T00:00:57.781Z,74.16
2023-11-27T00:03:32.415Z,74.13
2023-11-27T00:06:00.749Z,74.18
2023-11-27T00:08:28.702Z,74.24
2023-11-27T00:10:58.808Z,74.25
2023-11-27T00:13:28.023Z,74.40
2023-11-27T00:15:55.942Z,74.28
2023-11-27T00:18:24.059Z,74.32
2023-11-27T00:20:53.120Z,74.45
2023-11-27T00:23:20.940Z,74.40
2023-11-27T00:25:48.696Z,74.33
2023-11-27T00:28:16.503Z,74.37
2023-11-27T00:30:44.423Z,74.40
2023-11-27T00:33:12.299Z,74.26
2023-11-27T00:35:40.112Z,74.37
2023-11-27T00:38:09.154Z,74.39
2023-11-27T00:40:38.343Z,74.28
2023-11-27T00:43:06.250Z,74.37
2023-11-27T00:45:34.007Z,74.33
2023-11-27T00:48:02.343Z,74.39
2023-11-27T00:50:30.182Z,74.32
2023-11-27T00:52:57.960Z,74.48
2023-11-27T00:55:25.894Z,74.36
2023-11-27T00:57:53.688Z,74.29
2023-11-27T01:00:21.834Z,74.48
2023-11-27T01:02:53.667Z,74.32
2023-11-27T01:05:21.758Z,74.32
2023-11-27T01:07:49.652Z,74.33
2023-11-27T01:10:18.731Z,74.20
2023-11-27T01:12:49.713Z,74.64
2023-11-27T01:15:20.508Z,74.40
2023-11-27T01:17:48.335Z,74.24
2023-11-27T01:20:16.913Z,74.23
2023-11-27T01:22:45.686Z,74.23
2023-11-27T01:25:13.569Z,74.33
2023-11-27T01:27:41.594Z,74.38
2023-11-27T01:30:10.135Z,74.36
2023-11-27T01:32:38.381Z,74.21
2023-11-27T01:35:06.502Z,74.32
2023-11-27T01:37:34.274Z,74.41
2023-11-27T01:40:02.099Z,74.25
2023-11-27T01:42:29.938Z,74.21
2023-11-27T01:44:57.699Z,74.37
2023-11-27T01:47:26.563Z,74.35
2023-11-27T01:49:54.834Z,74.30
2023-11-27T01:52:23.167Z,74.21
2023-11-27T01:54:51.122Z,74.33
2023-11-27T01:57:21.448Z,74.41
2023-11-27T01:59:52.839Z,74.34
2023-11-27T02:02:21.075Z,74.37
2023-11-27T02:04:49.124Z,74.29
2023-11-27T02:07:17.550Z,74.25
2023-11-27T02:09:45.411Z,74.29
2023-11-27T02:12:13.367Z,74.28
2023-11-27T02:14:41.121Z,74.21
2023-11-27T02:17:09.661Z,74.12
2023-11-27T02:19:37.486Z,74.18
2023-11-27T02:22:06.311Z,74.22
2023-11-27T02:24:34.031Z,74.25
2023-11-27T02:27:01.837Z,74.03
2023-11-27T02:29:29.715Z,74.04
2023-11-27T02:31:58.419Z,74.09
2023-11-27T02:34:26.505Z,73.99
2023-11-27T02:36:54.366Z,74.02
2023-11-27T02:39:22.901Z,74.01
2023-11-27T02:41:50.736Z,74.01
2023-11-27T02:44:18.608Z,74.01
2023-11-27T02:46:46.465Z,73.91
2023-11-27T02:49:14.580Z,74.04
2023-11-27T02:51:42.424Z,73.96
2023-11-27T02:54:11.435Z,74.03
2023-11-27T02:56:39.421Z,73.92
2023-11-27T02:59:07.212Z,74.02
2023-11-27T03:01:35.293Z,73.98
2023-11-27T03:04:03.264Z,73.93
2023-11-27T03:06:31.103Z,73.92
2023-11-27T03:08:59.635Z,73.88
2023-11-27T03:11:27.395Z,74.07
2023-11-27T03:13:55.137Z,73.94
2023-11-27T03:16:23.036Z,73.74
2023-11-27T03:18:50.848Z,73.80
2023-11-27T03:21:22.570Z,73.72
2023-11-27T03:23:51.168Z,73.77
2023-11-27T03:26:19.792Z,73.62
2023-11-27T03:28:47.622Z,73.70
2023-11-27T03:31:15.907Z,73.71
2023-11-27T03:33:43.906Z,73.66
2023-11-27T03:36:11.879Z,73.67
2023-11-27T03:38:39.633Z,73.57
2023-11-27T03:41:09.569Z,73.44
2023-11-27T03:43:37.396Z,73.58
2023-11-27T03:46:05.451Z,73.57
2023-11-27T03:48:33.240Z,73.40
2023-11-27T03:51:01.057Z,73.50
2023-11-27T03:53:28.794Z,73.64
2023-11-27T03:55:56.593Z,73.42
2023-11-27T03:58:24.454Z,73.56
2023-11-27T04:00:52.700Z,73.39
2023-11-27T04:03:20.912Z,73.60
2023-11-27T04:05:48.716Z,73.35
2023-11-27T04:08:16.580Z,73.49
2023-11-27T04:10:44.827Z,73.44
2023-11-27T04:13:12.690Z,73.47
2023-11-27T04:15:40.442Z,73.47
2023-11-27T04:18:08.236Z,73.44
2023-11-27T04:20:35.977Z,73.46
2023-11-27T04:23:03.764Z,73.32
2023-11-27T04:25:31.996Z,73.37
2023-11-27T04:28:00.099Z,73.40
2023-11-27T04:30:28.464Z,73.38
2023-11-27T04:32:56.758Z,73.42
2023-11-27T04:35:24.638Z,73.43
2023-11-27T04:37:52.815Z,73.34
2023-11-27T04:40:21.495Z,73.28
2023-11-27T04:42:49.320Z,73.35
2023-11-27T04:45:19.571Z,73.25
2023-11-27T04:47:47.437Z,73.28
2023-11-27T04:50:15.493Z,73.24
2023-11-27T04:52:43.441Z,73.06
2023-11-27T04:55:11.885Z,73.28
2023-11-27T04:57:39.709Z,73.28
2023-11-27T05:00:10.320Z,73.12
2023-11-27T05:02:39.422Z,73.30
2023-11-27T05:05:26.970Z,73.05
2023-11-27T05:07:55.614Z,73.24
2023-11-27T05:10:23.724Z,73.13
2023-11-27T05:12:51.537Z,73.15
2023-11-27T05:15:19.357Z,73.11
2023-11-27T05:17:48.707Z,73.31
2023-11-27T05:20:16.831Z,73.17
2023-11-27T05:22:44.677Z,73.10
2023-11-27T05:25:12.560Z,73.04
2023-11-27T05:27:40.435Z,73.08
2023-11-27T05:30:08.799Z,73.12
2023-11-27T05:32:38.115Z,73.15
2023-11-27T05:35:08.733Z,73.02
2023-11-27T05:37:38.010Z,73.00
2023-11-27T05:40:08.384Z,72.94
2023-11-27T05:42:41.351Z,73.01
2023-11-27T05:45:12.968Z,73.01
2023-11-27T05:47:44.495Z,73.04
2023-11-27T05:50:26.653Z,72.92
2023-11-27T05:52:54.545Z,72.97
2023-11-27T05:55:31.354Z,72.95
2023-11-27T05:58:20.161Z,73.13
2023-11-27T06:01:03.430Z,72.67
2023-11-27T14:51:13.356Z,69.58
2023-11-27T15:02:32.341Z,69.43
2023-11-27T15:04:59.191Z,69.67
2023-11-27T15:07:27.772Z,69.45
2023-11-27T15:09:58.765Z,69.40
2023-11-27T15:12:25.685Z,69.40
2023-11-27T15:14:52.411Z,69.39
2023-11-27T15:17:21.851Z,69.25
2023-11-27T15:19:48.548Z,69.38
2023-11-27T15:22:19.758Z,69.25
2023-11-27T15:24:50.146Z,69.20
2023-11-27T15:27:17.005Z,69.30
2023-11-27T15:29:43.705Z,69.40
2023-11-27T15:32:15.688Z,69.27
2023-11-27T15:34:42.403Z,69.15
2023-11-27T15:37:09.280Z,69.12
2023-11-27T15:39:36.134Z,69.36
2023-11-27T15:42:08.272Z,69.55
2023-11-27T15:44:55.718Z,69.17
2023-11-27T15:47:27.737Z,69.00
2023-11-27T15:49:56.165Z,69.34
2023-11-27T15:52:25.992Z,69.35
2023-11-27T15:54:54.500Z,69.32
2023-11-27T15:57:24.907Z,69.02
2023-11-27T15:59:55.719Z,68.90
2023-11-27T16:02:24.022Z,69.44
2023-11-27T16:04:54.600Z,69.29
2023-11-27T16:07:22.994Z,69.10
2023-11-27T16:10:18.980Z,69.12
2023-11-27T16:12:47.558Z,69.21
2023-11-27T16:15:16.824Z,68.88
2023-11-27T16:25:47.615Z,69.21
2023-11-27T16:28:16.185Z,68.94
2023-11-27T16:30:43.999Z,68.89
2023-11-27T16:33:12.632Z,69.02
2023-11-27T16:35:42.542Z,69.01
2023-11-27T16:38:10.511Z,69.06
2023-11-27T16:40:39.464Z,68.88
2023-11-27T16:43:07.346Z,69.08
2023-11-27T16:45:35.088Z,69.09
2023-11-27T16:48:07.381Z,68.95
2023-11-27T16:50:35.995Z,69.20
2023-11-27T16:53:04.533Z,68.85
2023-11-27T16:55:33.070Z,68.62
2023-11-27T16:58:01.543Z,68.78
2023-11-27T17:00:37.771Z,69.07
2023-11-27T17:03:08.716Z,68.94
2023-11-27T17:05:38.319Z,69.03
2023-11-27T17:08:11.517Z,68.94
2023-11-27T17:10:43.395Z,69.05
2023-11-27T17:13:12.640Z,69.11
2023-11-27T17:15:42.554Z,68.76
2023-11-27T17:18:11.867Z,68.75
2023-11-27T17:20:41.049Z,69.27
2023-11-27T17:23:09.803Z,68.87
2023-11-27T17:25:42.310Z,68.86
2023-11-27T17:28:13.167Z,68.77
2023-11-27T17:30:46.746Z,68.80
2023-11-27T17:33:15.593Z,68.89
2023-11-27T17:35:44.363Z,68.92
2023-11-27T17:38:12.392Z,68.73
2023-11-27T17:40:41.033Z,68.86
2023-11-27T17:43:12.132Z,68.78
2023-11-27T17:45:43.406Z,69.05
2023-11-27T17:48:12.026Z,68.91
2023-11-27T17:50:39.854Z,69.06
2023-11-27T17:53:08.627Z,68.90
2023-11-27T17:55:45.217Z,69.11
2023-11-27T17:58:16.480Z,69.20
2023-11-27T18:00:47.783Z,68.94
2023-11-27T18:03:18.538Z,69.03
2023-11-27T18:05:46.598Z,69.02
2023-11-27T18:08:14.649Z,69.06
2023-11-27T18:10:42.586Z,69.23
2023-11-27T18:13:11.725Z,69.14
2023-11-27T18:15:39.565Z,69.09
2023-11-27T18:18:07.688Z,69.40
2023-11-27T18:20:35.635Z,69.38
2023-11-27T18:23:03.402Z,69.25
2023-11-27T18:25:31.205Z,69.47
2023-11-27T18:27:59.200Z,69.30
2023-11-27T18:30:27.698Z,69.46
2023-11-27T18:32:56.428Z,69.52
2023-11-27T18:35:24.285Z,69.55
2023-11-27T18:37:52.065Z,69.38
2023-11-27T18:40:19.999Z,69.71
2023-11-27T18:42:52.128Z,69.60
2023-11-27T18:45:24.052Z,69.66
2023-11-27T18:47:52.467Z,69.47
2023-11-27T18:50:20.578Z,69.58
2023-11-27T18:52:50.056Z,69.89
2023-11-27T18:55:18.142Z,69.75
2023-11-27T18:57:48.266Z,69.85
2023-11-27T19:00:19.086Z,69.43
2023-11-27T19:02:47.054Z,69.78
2023-11-27T19:05:15.228Z,69.58
2023-11-27T19:07:43.088Z,69.92
2023-11-27T19:10:11.539Z,69.86
2023-11-27T19:12:41.556Z,69.78
2023-11-27T19:15:10.124Z,69.63
2023-11-27T19:17:38.183Z,69.63
2023-11-27T19:20:11.772Z,69.62
2023-11-27T19:22:40.270Z,69.71
2023-11-27T19:25:11.968Z,69.83
2023-11-27T19:27:40.452Z,69.65
2023-11-27T19:30:11.876Z,69.54
2023-11-27T19:32:41.253Z,69.31
2023-11-27T19:35:11.280Z,69.56
2023-11-27T19:37:39.376Z,69.58
2023-11-27T19:40:09.019Z,69.45
2023-11-27T19:42:36.881Z,69.33
2023-11-27T19:45:07.023Z,69.30
2023-11-27T19:47:35.062Z,69.36
2023-11-27T19:50:04.872Z,69.42
2023-11-27T19:52:34.253Z,69.46
2023-11-27T19:55:02.201Z,69.49
2023-11-27T19:57:30.063Z,69.53
2023-11-27T19:59:57.802Z,69.82
2023-11-27T20:02:26.590Z,69.54
2023-11-27T20:04:54.516Z,69.51
2023-11-27T20:07:23.226Z,69.51
2023-11-27T20:09:51.064Z,69.51
2023-11-27T20:12:18.916Z,69.60
2023-11-27T20:14:46.921Z,69.76
2023-11-27T20:17:14.916Z,69.56
2023-11-27T20:19:43.153Z,69.37
2023-11-27T20:22:10.874Z,69.60
2023-11-27T20:24:38.984Z,69.74
2023-11-27T20:27:06.862Z,69.27
2023-11-27T20:29:34.766Z,69.39
2023-11-27T20:32:02.715Z,69.48
2023-11-27T20:34:31.013Z,69.53
2023-11-27T20:36:59.449Z,69.59
2023-11-27T20:39:27.233Z,69.20
2023-11-27T20:41:54.968Z,69.72
2023-11-27T20:44:22.673Z,69.59
2023-11-27T20:46:51.201Z,69.61
2023-11-27T20:49:19.797Z,69.63
2023-11-27T20:51:47.734Z,69.67
2023-11-27T20:54:15.737Z,69.77
2023-11-27T20:56:43.519Z,69.62
2023-11-27T20:59:11.364Z,69.39
2023-11-27T21:01:39.306Z,69.41
2023-11-27T21:04:07.914Z,69.88
2023-11-27T21:06:35.644Z,69.63
2023-11-27T21:09:03.506Z,69.94
2023-11-27T21:11:31.568Z,69.72
2023-11-27T21:13:59.382Z,69.83
2023-11-27T21:16:27.580Z,69.65
2023-11-27T21:18:55.500Z,69.75
2023-11-27T21:21:23.388Z,70.09
2023-11-27T21:23:51.318Z,69.71
2023-11-27T21:26:19.080Z,69.92
2023-11-27T21:28:47.008Z,70.03
2023-11-27T21:31:17.339Z,69.86
2023-11-27T21:33:45.814Z,69.86
2023-11-27T21:36:14.374Z,70.03
2023-11-27T21:38:42.235Z,69.65
2023-11-27T21:41:10.064Z,69.75
2023-11-27T21:43:38.139Z,69.78
2023-11-27T21:46:06.825Z,69.90
2023-11-27T21:48:34.582Z,69.74
2023-11-27T21:51:02.302Z,69.77
2023-11-27T21:53:30.071Z,69.84
2023-11-27T21:55:57.875Z,69.97
2023-11-27T21:58:25.649Z,69.96
2023-11-27T22:00:53.377Z,69.82
2023-11-27T22:03:21.659Z,69.87
2023-11-27T22:05:50.715Z,70.03
2023-11-27T22:08:19.828Z,70.11
2023-11-27T22:10:47.645Z,69.85
2023-11-27T22:13:19.223Z,69.85
2023-11-27T22:15:47.077Z,69.96
2023-11-27T22:18:16.792Z,70.13
2023-11-27T22:20:44.663Z,70.03
2023-11-27T22:23:12.533Z,70.01
2023-11-27T22:25:40.455Z,70.04
2023-11-27T22:28:08.286Z,70.19
2023-11-27T22:30:37.876Z,69.95
2023-11-27T22:33:06.034Z,70.01
2023-11-27T22:35:33.761Z,69.76
2023-11-27T22:38:01.499Z,70.45
2023-11-27T22:40:29.779Z,70.19
2023-11-27T22:42:57.753Z,70.28
2023-11-27T22:45:25.482Z,69.96
2023-11-27T22:47:53.463Z,70.45
2023-11-27T22:50:21.773Z,70.21
2023-11-27T22:52:49.517Z,70.37
2023-11-27T22:55:18.095Z,69.94
2023-11-27T22:57:48.497Z,70.10
2023-11-27T23:00:22.783Z,70.31
2023-11-27T23:02:50.839Z,70.31
2023-11-27T23:05:18.950Z,70.38
2023-11-27T23:07:47.000Z,70.37
2023-11-27T23:10:14.886Z,70.19
2023-11-27T23:12:43.361Z,70.39
2023-11-27T23:15:14.316Z,70.52
2023-11-27T23:17:42.610Z,70.40
2023-11-27T23:20:10.947Z,70.35
2023-11-27T23:22:38.908Z,70.32
2023-11-27T23:25:07.486Z,70.72
2023-11-27T23:27:36.298Z,70.43
2023-11-27T23:30:04.591Z,70.65
2023-11-27T23:32:32.656Z,70.55
2023-11-27T23:35:00.617Z,70.80
2023-11-27T23:37:28.612Z,70.27
2023-11-27T23:39:56.335Z,70.08
2023-11-27T23:42:24.401Z,70.39
2023-11-27T23:44:52.123Z,70.15
2023-11-27T23:47:20.038Z,70.40
2023-11-27T23:49:48.026Z,70.59
2023-11-27T23:52:15.786Z,70.47
2023-11-27T23:54:43.552Z,70.35
2023-11-27T23:57:11.335Z,70.39
2023-11-27T23:59:39.092Z,70.45
